createdAt,value
2022-08-01T00:01:59.117Z,96878.09
2022-08-01T00:04:34.712Z,96876.81
2022-08-01T00:07:02.918Z,96864.69
2022-08-01T00:09:38.725Z,96863.25
2022-08-01T00:12:11.878Z,96867.44
2022-08-01T00:14:44.328Z,96865.56
2022-08-01T00:17:15.390Z,96873.94
2022-08-01T00:19:45.865Z,96867.69
2022-08-01T00:22:17.075Z,96866.75
2022-08-01T00:24:46.428Z,96865.78
2022-08-01T00:27:18.520Z,96866.97
2022-08-01T00:30:11.506Z,96866.13
2022-08-01T00:32:39.136Z,96862.97
2022-08-01T00:35:10.338Z,96863.44
2022-08-01T00:37:40.258Z,96861.59
2022-08-01T00:40:09.600Z,96858.91
2022-08-01T00:42:41.634Z,96863.22
2022-08-01T00:45:13.749Z,96859.97
2022-08-01T00:47:41.989Z,96852.88
2022-08-01T00:50:20.280Z,96860.91
2022-08-01T00:52:51.649Z,96854.75
2022-08-01T00:55:21.081Z,96850.72
2022-08-01T00:58:05.274Z,96850.94
2022-08-01T01:00:53.625Z,96849.38
2022-08-01T01:03:56.308Z,96859.28
2022-08-01T01:07:13.837Z,96854.09
2022-08-01T01:09:49.113Z,96859.13
2022-08-01T01:12:22.827Z,96847.81
2022-08-01T01:15:02.789Z,96846.78
2022-08-01T01:17:50.066Z,96854.00
2022-08-01T01:20:21.708Z,96851.38
2022-08-01T01:23:18.945Z,96850.25
2022-08-01T01:26:07.437Z,96843.41
2022-08-01T01:28:55.338Z,96849.81
2022-08-01T01:31:24.422Z,96855.09
2022-08-01T01:33:55.427Z,96860.78
2022-08-01T01:36:30.749Z,96852.88
2022-08-01T01:39:04.960Z,96861.31
2022-08-01T01:41:42.888Z,96851.13
2022-08-01T01:44:14.475Z,96853.94
2022-08-01T01:46:46.285Z,96862.88
2022-08-01T01:49:17.746Z,96855.56
2022-08-01T01:52:02.813Z,96855.09
2022-08-01T01:54:39.553Z,96854.00
2022-08-01T01:57:12.694Z,96854.00
2022-08-01T01:59:44.184Z,96856.66
2022-08-01T02:02:14.816Z,96857.56
2022-08-01T02:04:49.760Z,96861.78
2022-08-01T02:07:23.145Z,96866.91
2022-08-01T02:09:56.199Z,96867.97
2022-08-01T02:12:30.273Z,96859.56
2022-08-01T02:15:08.500Z,96869.72
2022-08-01T02:17:40.564Z,96876.72
2022-08-01T02:20:12.563Z,96872.97
2022-08-01T02:22:45.153Z,96877.06
2022-08-01T02:25:18.939Z,96875.81
2022-08-01T02:27:52.831Z,96874.41
2022-08-01T02:30:23.097Z,96878.53
2022-08-01T02:32:56.585Z,96877.38
2022-08-01T02:35:31.536Z,96878.38
2022-08-01T02:38:01.456Z,96875.50
2022-08-01T02:40:33.930Z,96880.19
2022-08-01T02:43:16.046Z,96879.47
2022-08-01T02:45:59.371Z,96887.28
2022-08-01T02:48:31.246Z,96888.09
2022-08-01T02:51:03.355Z,96884.59
2022-08-01T02:53:44.728Z,96887.75
2022-08-01T02:56:16.184Z,96885.06
2022-08-01T02:58:44.983Z,96890.63
2022-08-01T03:01:21.566Z,96885.06
2022-08-01T03:03:53.324Z,96892.63
2022-08-01T03:06:26.412Z,96882.16
2022-08-01T03:09:00.465Z,96893.19
2022-08-01T03:11:30.816Z,96909.84
2022-08-01T03:14:03.362Z,96903.22
2022-08-01T03:16:36.339Z,96903.31
2022-08-01T03:19:06.487Z,96903.88
2022-08-01T03:21:35.691Z,96894.31
2022-08-01T03:24:07.956Z,96902.44
2022-08-01T03:26:37.605Z,96906.09
2022-08-01T03:29:08.807Z,96906.91
2022-08-01T03:31:43.947Z,96911.75
2022-08-01T03:34:12.337Z,96907.34
2022-08-01T03:36:50.161Z,96919.00
2022-08-01T03:39:26.571Z,96917.09
2022-08-01T03:41:59.857Z,96915.06
2022-08-01T03:44:31.300Z,96913.91
2022-08-01T03:47:03.017Z,96913.31
2022-08-01T03:49:37.450Z,96921.00
2022-08-01T03:52:08.560Z,96920.88
2022-08-01T03:54:39.250Z,96925.53
2022-08-01T03:57:35.731Z,96923.91
2022-08-01T04:00:01.430Z,96923.41
2022-08-01T04:02:31.606Z,96934.13
2022-08-01T04:05:01.744Z,96933.19
2022-08-01T04:07:31.337Z,96926.94
2022-08-01T04:10:01.391Z,96923.91
2022-08-01T04:12:29.795Z,96939.50
2022-08-01T04:14:58.095Z,96939.13
2022-08-01T04:17:29.012Z,96936.53
2022-08-01T04:20:04.446Z,96937.41
2022-08-01T04:22:37.255Z,96946.84
2022-08-01T04:25:12.491Z,96941.97
2022-08-01T04:27:51.152Z,96949.31
2022-08-01T04:30:22.496Z,96951.50
2022-08-01T04:32:52.897Z,96948.91
2022-08-01T04:36:03.994Z,96959.16
2022-08-01T04:38:18.202Z,96965.09
2022-08-01T04:40:47.667Z,96968.47
2022-08-01T04:43:16.097Z,96969.69
2022-08-01T04:45:45.987Z,96968.06
2022-08-01T04:48:17.666Z,96963.75
2022-08-01T04:50:47.802Z,96976.88
2022-08-01T04:53:18.609Z,96975.66
2022-08-01T04:55:49.178Z,96979.56
2022-08-01T04:58:20.782Z,96984.28
2022-08-01T05:00:51.492Z,96986.34
2022-08-01T05:03:20.165Z,96988.81
2022-08-01T05:05:52.105Z,96990.06
2022-08-01T05:08:21.936Z,96993.38
2022-08-01T05:10:50.437Z,97001.16
2022-08-01T05:13:18.980Z,96993.91
2022-08-01T05:15:47.603Z,96994.91
2022-08-01T05:18:15.947Z,97004.59
2022-08-01T05:20:49.045Z,96994.09
2022-08-01T05:48:08.908Z,97012.31
2022-08-01T05:50:37.308Z,97015.88
2022-08-01T05:53:05.806Z,97014.56
2022-08-01T05:55:35.675Z,97006.91
2022-08-01T05:58:04.209Z,97006.63
2022-08-01T06:00:32.629Z,97022.56
2022-08-01T06:03:01.208Z,97016.41
2022-08-01T06:05:29.628Z,97019.97
2022-08-01T06:07:59.337Z,97018.91
2022-08-01T06:10:27.821Z,97017.59
2022-08-01T06:12:57.838Z,97023.06
2022-08-01T06:15:26.219Z,97024.63
2022-08-01T06:17:54.660Z,97036.16
2022-08-01T06:20:23.095Z,97033.13
2022-08-01T06:22:52.840Z,97024.44
2022-08-01T06:25:21.633Z,97047.47
2022-08-01T06:27:50.828Z,97031.03
2022-08-01T06:30:22.319Z,97034.56
2022-08-01T06:32:50.700Z,97043.25
2022-08-01T06:35:19.220Z,97046.03
2022-08-01T06:37:48.093Z,97040.19
2022-08-01T06:40:17.529Z,97047.03
2022-08-01T06:42:46.958Z,97040.84
2022-08-01T06:45:16.170Z,97044.09
2022-08-01T06:47:50.590Z,97041.34
2022-08-01T06:50:19.572Z,97042.28
2022-08-01T06:52:48.147Z,97045.03
2022-08-01T06:55:16.898Z,97044.59
2022-08-01T06:57:49.460Z,97044.00
2022-08-01T07:00:20.076Z,97054.69
2022-08-01T07:02:49.988Z,97046.09
2022-08-01T07:05:18.458Z,97049.22
2022-08-01T07:07:46.787Z,97047.22
2022-08-01T07:10:15.267Z,97049.97
2022-08-01T07:12:43.637Z,97046.25
2022-08-01T07:15:12.947Z,97048.47
2022-08-01T07:17:41.976Z,97052.53
2022-08-01T07:20:16.542Z,97049.53
2022-08-01T07:22:47.617Z,97044.72
2022-08-01T07:25:17.147Z,97045.50
2022-08-01T07:27:45.934Z,97047.44
2022-08-01T07:30:15.109Z,97054.41
2022-08-01T07:32:43.518Z,97054.09
2022-08-01T07:35:21.677Z,97052.69
2022-08-01T07:37:50.037Z,97048.16
2022-08-01T07:40:20.099Z,97048.47
2022-08-01T07:42:48.681Z,97051.13
2022-08-01T07:45:17.464Z,97046.56
2022-08-01T07:47:46.590Z,97061.75
2022-08-01T07:50:16.527Z,97053.09
2022-08-01T07:52:45.035Z,97051.22
2022-08-01T07:55:16.588Z,97053.91
2022-08-01T07:57:45.357Z,97043.06
2022-08-01T08:00:14.919Z,97042.53
2022-08-01T08:02:43.512Z,97048.72
2022-08-01T08:05:12.848Z,97042.75
2022-08-01T08:07:43.155Z,97052.97
2022-08-01T08:10:12.164Z,97040.53
2022-08-01T08:12:40.619Z,97045.69
2022-08-01T08:15:09.901Z,97042.47
2022-08-01T08:17:38.333Z,97044.63
2022-08-01T08:20:09.280Z,97046.03
2022-08-01T08:22:39.022Z,97051.06
2022-08-01T08:25:10.477Z,97035.34
2022-08-01T08:27:40.644Z,97034.97
2022-08-01T08:30:10.238Z,97040.34
2022-08-01T08:32:39.010Z,97044.28
2022-08-01T08:35:08.368Z,97041.69
2022-08-01T08:37:47.413Z,97040.16
2022-08-01T08:40:18.692Z,97036.63
2022-08-01T08:42:47.591Z,97041.44
2022-08-01T08:45:15.957Z,97054.78
2022-08-01T08:47:44.697Z,97052.97
2022-08-01T08:50:13.345Z,97050.22
2022-08-01T08:52:42.347Z,97049.28
2022-08-01T08:55:12.100Z,97050.34
2022-08-01T08:57:45.075Z,97047.06
2022-08-01T09:00:14.548Z,97050.31
2022-08-01T09:02:44.887Z,97048.53
2022-08-01T09:05:18.921Z,97045.00
2022-08-01T09:07:48.083Z,97050.34
2022-08-01T09:10:16.540Z,97060.03
2022-08-01T09:13:12.113Z,97057.06
2022-08-01T09:15:42.236Z,97058.28
2022-08-01T09:18:11.116Z,97071.88
2022-08-01T09:20:39.679Z,97060.97
2022-08-01T09:23:08.068Z,97068.31
2022-08-01T09:25:56.766Z,97067.13
2022-08-01T09:28:32.357Z,97061.19
2022-08-01T09:31:01.246Z,97061.16
2022-08-01T09:33:50.713Z,97062.75
2022-08-01T09:36:21.217Z,97066.03
2022-08-01T09:38:50.888Z,97061.38
2022-08-01T09:41:19.948Z,97071.22
2022-08-01T09:43:54.358Z,97055.03
2022-08-01T09:46:22.886Z,97070.81
2022-08-01T09:48:59.417Z,97059.06
2022-08-01T09:51:58.851Z,97059.31
2022-08-01T09:54:30.995Z,97053.84
2022-08-01T09:57:11.436Z,97056.50
2022-08-01T09:59:57.953Z,97057.03
2022-08-01T10:02:33.048Z,97062.84
2022-08-01T10:05:08.420Z,97058.09
2022-08-01T10:07:42.992Z,97065.22
2022-08-01T10:10:14.652Z,97058.25
2022-08-01T10:12:45.402Z,97056.91
2022-08-01T10:15:17.804Z,97054.50
2022-08-01T10:17:57.370Z,97046.56
2022-08-01T10:20:30.994Z,97055.13
2022-08-01T10:23:05.794Z,97055.03
2022-08-01T10:25:43.012Z,97043.44
2022-08-01T10:28:21.379Z,97048.28
2022-08-01T10:30:52.076Z,97051.16
2022-08-01T10:33:52.440Z,97043.41
2022-08-01T10:36:12.924Z,97042.34
2022-08-01T10:38:42.138Z,97041.84
2022-08-01T10:41:11.315Z,97050.00
2022-08-01T10:43:39.841Z,97052.50
2022-08-01T10:46:15.470Z,97046.09
2022-08-01T10:48:49.671Z,97036.44
2022-08-01T10:51:51.100Z,97029.63
2022-08-01T10:54:12.899Z,97032.44
2022-08-01T10:56:43.170Z,97042.22
2022-08-01T10:59:12.126Z,97029.66
2022-08-01T11:01:45.249Z,97030.09
2022-08-01T11:04:18.414Z,97030.97
2022-08-01T11:07:06.013Z,97022.31
2022-08-01T11:09:41.920Z,97029.22
2022-08-01T11:12:13.549Z,97032.63
2022-08-01T11:15:30.023Z,97027.53
2022-08-01T11:18:01.928Z,97040.59
2022-08-01T11:20:32.799Z,97026.09
2022-08-01T11:23:36.151Z,97021.34
2022-08-01T11:26:12.905Z,97024.09
2022-08-01T11:28:59.441Z,97016.19
2022-08-01T11:31:37.295Z,97018.50
2022-08-01T11:34:08.395Z,97022.66
2022-08-01T11:36:58.094Z,97021.25
2022-08-01T11:39:25.318Z,97023.22
2022-08-01T11:41:55.790Z,97029.63
2022-08-01T11:44:26.962Z,97030.00
2022-08-01T11:47:01.425Z,97027.63
2022-08-01T11:49:49.650Z,97025.50
2022-08-01T11:52:20.453Z,97032.53
2022-08-01T11:54:50.503Z,97031.72
2022-08-01T11:57:22.924Z,97022.88
2022-08-01T12:00:03.646Z,97026.94
2022-08-01T12:02:35.237Z,97030.00
2022-08-01T12:05:08.633Z,97029.50
2022-08-01T12:07:42.038Z,97032.53
2022-08-01T12:10:12.002Z,97027.84
2022-08-01T12:12:45.910Z,97023.34
2022-08-01T12:15:15.607Z,97017.81
2022-08-01T12:17:57.412Z,97021.41
2022-08-01T12:20:31.600Z,97023.56
2022-08-01T12:23:02.309Z,97013.00
2022-08-01T12:25:31.098Z,97021.31
2022-08-01T12:28:02.883Z,97026.09
2022-08-01T12:30:36.572Z,97017.16
2022-08-01T12:33:06.540Z,97017.94
2022-08-01T12:35:37.726Z,97012.19
2022-08-01T12:38:08.597Z,97001.63
2022-08-01T12:40:43.326Z,97012.84
2022-08-01T12:43:28.110Z,97008.91
2022-08-01T12:45:59.685Z,97010.50
2022-08-01T12:48:28.724Z,97003.50
2022-08-01T12:51:01.694Z,97010.22
2022-08-01T12:53:40.220Z,97008.84
2022-08-01T12:56:10.937Z,97001.84
2022-08-01T12:58:39.458Z,96993.66
2022-08-01T13:01:09.427Z,96996.09
2022-08-01T13:03:38.397Z,96983.84
2022-08-01T13:06:16.473Z,96991.81
2022-08-01T13:08:46.282Z,96988.34
2022-08-01T13:11:17.574Z,96987.94
2022-08-01T13:13:48.591Z,96978.78
2022-08-01T13:16:31.131Z,96981.66
2022-08-01T13:19:03.342Z,96975.56
2022-08-01T13:21:52.270Z,96964.97
2022-08-01T13:24:26.899Z,96976.69
2022-08-01T13:26:59.950Z,96974.22
2022-08-01T13:29:35.447Z,96964.78
2022-08-01T13:32:27.872Z,96963.81
2022-08-01T13:35:03.640Z,96979.56
2022-08-01T13:37:33.551Z,96970.53
2022-08-01T13:40:02.004Z,96965.13
2022-08-01T13:42:31.711Z,96970.09
2022-08-01T13:45:00.390Z,96961.84
2022-08-01T13:47:31.678Z,96960.03
2022-08-01T13:50:03.477Z,96956.78
2022-08-01T13:52:33.889Z,96951.09
2022-08-01T13:55:05.153Z,96948.47
2022-08-01T13:57:39.766Z,96937.47
2022-08-01T14:00:11.049Z,96942.72
2022-08-01T14:02:40.373Z,96939.84
2022-08-01T14:05:09.361Z,96943.69
2022-08-01T14:07:39.017Z,96942.19
2022-08-01T14:10:19.961Z,96947.53
2022-08-01T14:12:49.054Z,96938.03
2022-08-01T14:15:18.224Z,96948.81
2022-08-01T14:18:06.271Z,96937.50
2022-08-01T14:20:34.782Z,96938.25
2022-08-01T14:23:04.575Z,96939.22
2022-08-01T14:26:00.634Z,96941.84
2022-08-01T14:28:26.643Z,96944.31
2022-08-01T14:30:56.597Z,96944.00
2022-08-01T14:33:24.964Z,96948.41
2022-08-01T14:36:06.234Z,96941.94
2022-08-01T14:38:42.847Z,96949.09
2022-08-01T14:41:14.975Z,96942.38
2022-08-01T14:43:43.294Z,96953.69
2022-08-01T14:46:17.143Z,96949.97
2022-08-01T14:48:56.405Z,96954.09
2022-08-01T14:51:44.964Z,96953.44
2022-08-01T14:54:29.283Z,96951.50
2022-08-01T14:56:57.784Z,96953.53
2022-08-01T14:59:27.586Z,96954.38
2022-08-01T15:01:55.907Z,96946.69
2022-08-01T15:04:24.227Z,96946.81
2022-08-01T15:06:52.480Z,96948.03
2022-08-01T15:09:22.202Z,96945.94
2022-08-01T15:11:50.409Z,96949.75
2022-08-01T15:14:34.968Z,96947.47
2022-08-01T15:17:03.169Z,96941.19
2022-08-01T15:19:31.729Z,96948.75
2022-08-01T15:22:03.225Z,96945.81
2022-08-01T15:24:45.752Z,96954.97
2022-08-01T15:30:23.463Z,96939.28
2022-08-01T15:32:59.173Z,96942.59
2022-08-01T15:35:27.417Z,96937.00
2022-08-01T15:37:55.737Z,96937.59
2022-08-01T15:40:25.588Z,96945.44
2022-08-01T15:43:20.835Z,96939.19
2022-08-01T15:45:49.361Z,96944.03
2022-08-01T15:52:03.815Z,96947.72
2022-08-01T15:57:43.738Z,96953.59
2022-08-01T16:00:18.989Z,96945.41
2022-08-01T16:02:47.415Z,96945.13
2022-08-01T16:05:30.509Z,96938.13
2022-08-01T16:08:01.742Z,96943.06
2022-08-01T16:10:59.585Z,96948.00
2022-08-01T16:16:36.008Z,96943.00
2022-08-01T16:19:05.453Z,96946.00
2022-08-01T16:21:33.727Z,96934.50
2022-08-01T16:24:15.427Z,96930.81
2022-08-01T16:26:43.679Z,96933.00
2022-08-01T16:29:13.318Z,96934.03
2022-08-01T16:31:42.667Z,96936.16
2022-08-01T16:34:29.987Z,96935.66
2022-08-01T16:36:58.810Z,96933.16
2022-08-01T16:39:35.135Z,96937.88
2022-08-01T16:42:03.525Z,96937.00
2022-08-01T16:44:38.166Z,96939.59
2022-08-01T16:47:09.939Z,96943.88
2022-08-01T16:49:38.526Z,96936.78
2022-08-01T16:52:07.526Z,96937.88
2022-08-01T16:54:37.539Z,96944.66
2022-08-01T16:57:07.730Z,96941.88
2022-08-01T16:59:41.367Z,96946.06
2022-08-01T17:02:10.614Z,96946.06
2022-08-01T17:04:40.945Z,96944.16
2022-08-01T17:07:09.614Z,96939.50
2022-08-01T17:09:42.968Z,96950.88
2022-08-01T17:12:22.073Z,96946.28
2022-08-01T17:14:52.268Z,96938.78
2022-08-01T17:17:20.968Z,96944.50
2022-08-01T17:19:52.979Z,96946.22
2022-08-01T17:22:21.406Z,96942.34
2022-08-01T17:24:52.450Z,96948.06
2022-08-01T17:27:24.892Z,96952.78
2022-08-01T17:30:00.466Z,96952.09
2022-08-01T17:32:29.348Z,96949.78
2022-08-01T17:35:02.034Z,96954.63
2022-08-01T17:37:31.497Z,96971.72
2022-08-01T17:40:37.542Z,96964.44
2022-08-01T17:42:55.373Z,96972.66
2022-08-01T17:45:28.366Z,96975.94
2022-08-01T17:48:05.200Z,96979.22
2022-08-01T17:50:36.680Z,96983.03
2022-08-01T17:53:09.787Z,96978.75
2022-08-01T17:55:55.333Z,96980.41
2022-08-01T17:58:50.341Z,96989.09
2022-08-01T18:01:19.344Z,96994.84
2022-08-01T18:03:48.141Z,96992.72
2022-08-01T18:06:24.933Z,96992.50
2022-08-01T18:08:56.710Z,96988.47
2022-08-01T18:11:37.395Z,96993.94
2022-08-01T18:14:07.553Z,96992.03
2022-08-01T18:16:45.013Z,96989.63
2022-08-01T18:19:21.497Z,96990.97
2022-08-01T18:21:49.975Z,96998.09
2022-08-01T18:24:25.073Z,96995.66
2022-08-01T18:26:54.545Z,96997.31
2022-08-01T18:29:47.513Z,97005.97
2022-08-01T18:32:13.517Z,97003.81
2022-08-01T18:34:42.276Z,97000.91
2022-08-01T18:37:14.816Z,97000.38
2022-08-01T18:39:46.123Z,96995.50
2022-08-01T18:42:22.129Z,97000.94
2022-08-01T18:44:53.109Z,97006.06
2022-08-01T18:47:24.760Z,97012.56
2022-08-01T18:49:54.753Z,97010.91
2022-08-01T18:52:28.494Z,97021.19
2022-08-01T18:55:02.096Z,97021.97
2022-08-01T18:57:30.317Z,97023.59
2022-08-01T18:59:58.980Z,97023.06
2022-08-01T19:02:28.637Z,97023.06
2022-08-01T19:04:56.915Z,97024.13
2022-08-01T19:07:53.615Z,97034.94
2022-08-01T19:10:17.196Z,97032.75
2022-08-01T19:12:45.663Z,97041.69
2022-08-01T19:15:15.100Z,97048.41
2022-08-01T19:17:47.283Z,97053.81
2022-08-01T19:20:15.552Z,97053.81
2022-08-01T19:22:46.830Z,97060.28
2022-08-01T19:25:15.717Z,97064.06
2022-08-01T19:27:51.164Z,97059.19
2022-08-01T19:30:20.486Z,97054.03
2022-08-01T19:32:50.254Z,97065.91
2022-08-01T19:35:18.787Z,97064.28
2022-08-01T19:37:47.882Z,97064.00
2022-08-01T19:40:27.353Z,97073.59
2022-08-01T19:42:57.212Z,97072.28
2022-08-01T19:45:26.705Z,97073.59
2022-08-01T19:47:59.474Z,97070.88
2022-08-01T19:50:29.700Z,97074.66
2022-08-01T19:53:02.452Z,97080.00
2022-08-01T19:55:39.024Z,97088.06
2022-08-01T19:58:27.471Z,97089.09
2022-08-01T20:00:56.781Z,97085.81
2022-08-01T20:03:29.426Z,97091.16
2022-08-01T20:05:58.327Z,97089.28
2022-08-01T20:08:28.525Z,97089.53
2022-08-01T20:10:57.720Z,97084.44
2022-08-01T20:13:26.464Z,97084.41
2022-08-01T20:16:12.267Z,97087.44
2022-08-01T20:18:44.995Z,97089.56
2022-08-01T20:21:16.444Z,97088.31
2022-08-01T20:23:47.725Z,97095.84
2022-08-01T20:26:18.325Z,97083.97
2022-08-01T20:28:48.840Z,97096.91
2022-08-01T20:31:23.995Z,97099.50
2022-08-01T20:33:55.516Z,97087.81
2022-08-01T20:36:28.490Z,97098.88
2022-08-01T20:38:58.343Z,97102.47
2022-08-01T20:41:30.017Z,97101.06
2022-08-01T20:44:02.177Z,97096.50
2022-08-01T20:46:30.909Z,97100.44
2022-08-01T20:49:03.337Z,97100.09
2022-08-01T20:51:32.046Z,97095.94
2022-08-01T20:54:00.649Z,97094.75
2022-08-01T20:56:43.530Z,97091.44
2022-08-01T20:59:39.473Z,97094.31
2022-08-01T21:02:09.648Z,97096.50
2022-08-01T21:04:50.049Z,97109.50
2022-08-01T21:07:25.637Z,97102.44
2022-08-01T21:10:07.734Z,97102.91
2022-08-01T21:12:45.088Z,97110.25
2022-08-01T21:15:27.770Z,97119.63
2022-08-01T21:18:01.114Z,97119.22
2022-08-01T21:20:33.263Z,97119.09
2022-08-01T21:23:21.114Z,97115.13
2022-08-01T21:25:54.510Z,97124.53
2022-08-01T21:28:25.786Z,97124.94
2022-08-01T21:31:00.128Z,97116.72
2022-08-01T21:33:32.609Z,97125.72
2022-08-01T21:36:06.631Z,97126.94
2022-08-01T21:38:40.638Z,97128.22
2022-08-01T21:41:12.601Z,97131.00
2022-08-01T21:43:43.878Z,97130.09
2022-08-01T21:46:17.317Z,97123.50
2022-08-01T21:48:47.747Z,97138.09
2022-08-01T21:51:31.145Z,97139.06
2022-08-01T21:54:10.151Z,97149.47
2022-08-01T21:56:47.960Z,97146.06
2022-08-01T21:59:27.500Z,97143.44
2022-08-01T22:02:04.347Z,97150.03
2022-08-01T22:04:44.621Z,97158.97
2022-08-01T22:07:17.055Z,97160.50
2022-08-01T22:09:51.648Z,97155.06
2022-08-01T22:12:20.682Z,97161.50
2022-08-01T22:14:50.731Z,97160.75
2022-08-01T22:17:22.796Z,97149.94
2022-08-01T22:20:00.597Z,97146.09
2022-08-01T22:22:51.567Z,97141.00
2022-08-01T22:25:20.327Z,97147.28
2022-08-01T22:28:07.749Z,97145.53
2022-08-01T22:30:42.145Z,97154.63
2022-08-01T22:33:16.657Z,97150.69
2022-08-01T22:35:47.663Z,97150.41
2022-08-01T22:38:24.690Z,97152.47
2022-08-01T22:40:54.561Z,97156.84
2022-08-01T22:43:27.838Z,97161.78
2022-08-01T22:46:21.291Z,97162.28
2022-08-01T22:48:54.049Z,97170.72
2022-08-01T22:51:33.921Z,97158.28
2022-08-01T22:54:08.410Z,97148.31
2022-08-01T22:56:40.417Z,97155.03
2022-08-01T22:59:13.806Z,97158.22
2022-08-01T23:01:50.511Z,97154.38
2022-08-01T23:04:34.697Z,97153.59
2022-08-01T23:07:09.296Z,97151.13
2022-08-01T23:09:54.086Z,97150.06
2022-08-01T23:12:24.796Z,97155.31
2022-08-01T23:14:55.640Z,97156.28
2022-08-01T23:17:26.971Z,97154.28
2022-08-01T23:20:00.446Z,97151.59
2022-08-01T23:22:31.496Z,97152.66
2022-08-01T23:25:07.070Z,97150.69
2022-08-01T23:27:51.689Z,97148.00
2022-08-01T23:30:29.730Z,97150.28
2022-08-01T23:32:58.173Z,97146.16
2022-08-01T23:35:27.220Z,97145.75
2022-08-01T23:37:58.602Z,97140.50
2022-08-01T23:40:33.645Z,97144.03
2022-08-01T23:43:05.750Z,97150.75
2022-08-01T23:46:04.532Z,97152.75
2022-08-01T23:48:33.545Z,97153.47
2022-08-01T23:51:04.347Z,97151.34
2022-08-01T23:53:33.913Z,97156.13
2022-08-01T23:56:05.930Z,97156.00
2022-08-01T23:58:34.192Z,97159.84
